sensor_id;sensor_type;location;lat;lon;timestamp;pressure;altitude;pressure_sealevel;temperature;humidity
5905;BME280;2978;42.012;24.880;2022-11-06T00:00:41;98441.41;;;14.24;72.00
5905;BME280;2978;42.012;24.880;2022-11-06T00:03:07;98447.75;;;14.25;71.84
5905;BME280;2978;42.012;24.880;2022-11-06T00:05:33;98457.97;;;14.11;73.08
5905;BME280;2978;42.012;24.880;2022-11-06T00:08:34;98449.59;;;14.16;73.28
5905;BME280;2978;42.012;24.880;2022-11-06T00:11:00;98447.53;;;14.21;72.56
5905;BME280;2978;42.012;24.880;2022-11-06T00:13:31;98432.00;;;14.12;72.65
5905;BME280;2978;42.012;24.880;2022-11-06T00:16:01;98434.13;;;14.15;72.65
5905;BME280;2978;42.012;24.880;2022-11-06T00:18:26;98430.34;;;14.11;72.32
5905;BME280;2978;42.012;24.880;2022-11-06T00:20:52;98432.00;;;14.12;72.15
5905;BME280;2978;42.012;24.880;2022-11-06T00:23:17;98439.25;;;14.08;72.23
5905;BME280;2978;42.012;24.880;2022-11-06T00:25:43;98438.41;;;13.94;72.94
5905;BME280;2978;42.012;24.880;2022-11-06T00:28:08;98428.59;;;13.88;72.97
5905;BME280;2978;42.012;24.880;2022-11-06T00:30:34;98415.16;;;13.95;72.88
5905;BME280;2978;42.012;24.880;2022-11-06T00:32:59;98424.19;;;14.00;72.69
5905;BME280;2978;42.012;24.880;2022-11-06T00:35:25;98401.03;;;13.83;72.24
5905;BME280;2978;42.012;24.880;2022-11-06T00:37:50;98425.63;;;13.98;72.66
5905;BME280;2978;42.012;24.880;2022-11-06T00:40:16;98424.78;;;13.97;72.81
5905;BME280;2978;42.012;24.880;2022-11-06T00:42:41;98417.59;;;13.83;73.06
5905;BME280;2978;42.012;24.880;2022-11-06T00:45:07;98433.81;;;13.89;72.99
5905;BME280;2978;42.012;24.880;2022-11-06T00:47:33;98434.50;;;13.95;72.95
5905;BME280;2978;42.012;24.880;2022-11-06T00:49:58;98425.88;;;13.83;73.51
5905;BME280;2978;42.012;24.880;2022-11-06T00:52:23;98447.31;;;13.91;73.34
5905;BME280;2978;42.012;24.880;2022-11-06T00:54:49;98442.41;;;13.88;73.55
5905;BME280;2978;42.012;24.880;2022-11-06T00:57:14;98440.75;;;13.87;73.58
5905;BME280;2978;42.012;24.880;2022-11-06T00:59:40;98446.69;;;13.80;74.08
5905;BME280;2978;42.012;24.880;2022-11-06T01:02:05;98429.25;;;13.66;75.42
5905;BME280;2978;42.012;24.880;2022-11-06T01:04:30;98434.84;;;13.61;76.24
5905;BME280;2978;42.012;24.880;2022-11-06T01:06:56;98427.38;;;13.62;76.44
5905;BME280;2978;42.012;24.880;2022-11-06T01:09:23;98435.38;;;13.63;76.56
5905;BME280;2978;42.012;24.880;2022-11-06T01:11:52;98429.22;;;13.52;77.29
5905;BME280;2978;42.012;24.880;2022-11-06T01:14:19;98430.41;;;13.46;77.75
5905;BME280;2978;42.012;24.880;2022-11-06T01:16:45;98430.63;;;13.50;76.76
5905;BME280;2978;42.012;24.880;2022-11-06T01:19:12;98438.03;;;13.54;76.60
5905;BME280;2978;42.012;24.880;2022-11-06T01:21:40;98439.34;;;13.57;76.34
5905;BME280;2978;42.012;24.880;2022-11-06T01:24:10;98445.09;;;13.61;76.72
5905;BME280;2978;42.012;24.880;2022-11-06T01:26:36;98441.13;;;13.67;76.60
5905;BME280;2978;42.012;24.880;2022-11-06T01:29:03;98436.31;;;13.72;76.43
5905;BME280;2978;42.012;24.880;2022-11-06T01:31:31;98433.75;;;13.76;76.18
5905;BME280;2978;42.012;24.880;2022-11-06T01:33:58;98432.84;;;13.67;76.71
5905;BME280;2978;42.012;24.880;2022-11-06T01:36:24;98429.66;;;13.60;76.96
5905;BME280;2978;42.012;24.880;2022-11-06T01:38:51;98432.00;;;13.66;76.80
5905;BME280;2978;42.012;24.880;2022-11-06T01:47:02;98426.06;;;13.59;76.95
5905;BME280;2978;42.012;24.880;2022-11-06T01:49:33;98437.94;;;13.60;77.20
5905;BME280;2978;42.012;24.880;2022-11-06T01:52:04;98430.22;;;13.56;77.78
5905;BME280;2978;42.012;24.880;2022-11-06T01:54:33;98430.00;;;13.53;77.99
5905;BME280;2978;42.012;24.880;2022-11-06T01:57:00;98432.28;;;13.51;78.36
5905;BME280;2978;42.012;24.880;2022-11-06T01:59:29;98442.94;;;13.57;78.25
5905;BME280;2978;42.012;24.880;2022-11-06T02:01:55;98435.16;;;13.60;77.92
5905;BME280;2978;42.012;24.880;2022-11-06T02:04:22;98428.38;;;13.52;78.62
5905;BME280;2978;42.012;24.880;2022-11-06T02:06:48;98425.09;;;13.50;78.29
5905;BME280;2978;42.012;24.880;2022-11-06T02:09:14;98417.13;;;13.48;78.32
5905;BME280;2978;42.012;24.880;2022-11-06T02:11:43;98428.47;;;13.47;78.29
5905;BME280;2978;42.012;24.880;2022-11-06T02:16:50;98416.28;;;13.48;78.09
5905;BME280;2978;42.012;24.880;2022-11-06T02:19:48;98420.50;;;13.45;78.99
5905;BME280;2978;42.012;24.880;2022-11-06T02:22:34;98422.13;;;13.46;78.55
5905;BME280;2978;42.012;24.880;2022-11-06T02:27:57;98424.88;;;13.46;78.61
5905;BME280;2978;42.012;24.880;2022-11-06T02:30:30;98433.25;;;13.41;79.13
5905;BME280;2978;42.012;24.880;2022-11-06T02:33:06;98436.16;;;13.50;78.65
5905;BME280;2978;42.012;24.880;2022-11-06T02:35:42;98436.97;;;13.50;78.88
5905;BME280;2978;42.012;24.880;2022-11-06T02:38:14;98437.50;;;13.52;78.61
5905;BME280;2978;42.012;24.880;2022-11-06T02:40:46;98440.16;;;13.57;77.95
5905;BME280;2978;42.012;24.880;2022-11-06T02:43:14;98436.34;;;13.53;77.64
5905;BME280;2978;42.012;24.880;2022-11-06T02:45:46;98432.78;;;13.53;77.64
5905;BME280;2978;42.012;24.880;2022-11-06T02:48:17;98432.50;;;13.54;77.38
5905;BME280;2978;42.012;24.880;2022-11-06T02:50:47;98445.09;;;13.61;77.37
5905;BME280;2978;42.012;24.880;2022-11-06T02:53:17;98446.31;;;13.54;77.56
5905;BME280;2978;42.012;24.880;2022-11-06T02:55:47;98444.72;;;13.48;78.16
5905;BME280;2978;42.012;24.880;2022-11-06T03:00:44;98452.50;;;13.46;79.34
5905;BME280;2978;42.012;24.880;2022-11-06T03:03:25;98439.38;;;13.38;79.45
5905;BME280;2978;42.012;24.880;2022-11-06T03:05:56;98436.09;;;13.36;79.55
5905;BME280;2978;42.012;24.880;2022-11-06T03:08:27;98437.50;;;13.34;79.65
5905;BME280;2978;42.012;24.880;2022-11-06T03:18:54;98449.59;;;13.38;80.32
5905;BME280;2978;42.012;24.880;2022-11-06T03:21:26;98443.34;;;13.32;80.67
5905;BME280;2978;42.012;24.880;2022-11-06T03:24:02;98443.56;;;13.36;80.50
5905;BME280;2978;42.012;24.880;2022-11-06T03:26:37;98445.72;;;13.39;80.35
5905;BME280;2978;42.012;24.880;2022-11-06T03:29:19;98442.06;;;13.43;80.14
5905;BME280;2978;42.012;24.880;2022-11-06T03:31:57;98440.63;;;13.46;80.12
5905;BME280;2978;42.012;24.880;2022-11-06T03:34:31;98440.41;;;13.42;80.41
5905;BME280;2978;42.012;24.880;2022-11-06T03:37:04;98429.78;;;13.49;79.75
5905;BME280;2978;42.012;24.880;2022-11-06T03:39:40;98443.31;;;13.51;79.32
5905;BME280;2978;42.012;24.880;2022-11-06T03:42:11;98438.59;;;13.51;78.89
5905;BME280;2978;42.012;24.880;2022-11-06T03:44:45;98443.53;;;13.54;78.93
5905;BME280;2978;42.012;24.880;2022-11-06T03:47:35;98428.78;;;13.45;79.00
5905;BME280;2978;42.012;24.880;2022-11-06T03:50:09;98448.41;;;13.44;79.32
5905;BME280;2978;42.012;24.880;2022-11-06T03:52:44;98440.34;;;13.47;79.86
5905;BME280;2978;42.012;24.880;2022-11-06T03:55:20;98430.84;;;13.53;79.57
5905;BME280;2978;42.012;24.880;2022-11-06T03:57:50;98428.59;;;13.55;79.78
5905;BME280;2978;42.012;24.880;2022-11-06T04:00:18;98436.78;;;13.61;79.21
5905;BME280;2978;42.012;24.880;2022-11-06T04:02:51;98436.19;;;13.64;78.87
5905;BME280;2978;42.012;24.880;2022-11-06T04:05:32;98433.19;;;13.60;78.98
5905;BME280;2978;42.012;24.880;2022-11-06T04:08:00;98431.88;;;13.57;78.96
5905;BME280;2978;42.012;24.880;2022-11-06T04:10:47;98434.66;;;13.57;78.93
5905;BME280;2978;42.012;24.880;2022-11-06T04:13:36;98421.22;;;13.51;78.80
5905;BME280;2978;42.012;24.880;2022-11-06T04:16:21;98421.59;;;13.44;79.16
5905;BME280;2978;42.012;24.880;2022-11-06T04:18:47;98439.31;;;13.43;79.56
5905;BME280;2978;42.012;24.880;2022-11-06T04:21:28;98442.16;;;13.38;79.84
5905;BME280;2978;42.012;24.880;2022-11-06T04:30:01;98430.56;;;13.36;80.79
5905;BME280;2978;42.012;24.880;2022-11-06T04:35:46;98420.59;;;13.40;80.49
5905;BME280;2978;42.012;24.880;2022-11-06T04:38:41;98418.91;;;13.39;79.99
5905;BME280;2978;42.012;24.880;2022-11-06T04:43:56;98428.03;;;13.40;80.12
5905;BME280;2978;42.012;24.880;2022-11-06T04:46:29;98438.78;;;13.41;80.01
5905;BME280;2978;42.012;24.880;2022-11-06T04:48:57;98445.00;;;13.33;80.42
5905;BME280;2978;42.012;24.880;2022-11-06T04:51:26;98440.88;;;13.31;81.29
5905;BME280;2978;42.012;24.880;2022-11-06T04:53:53;98442.09;;;13.25;81.37
5905;BME280;2978;42.012;24.880;2022-11-06T04:56:22;98437.38;;;13.25;81.52
5905;BME280;2978;42.012;24.880;2022-11-06T04:58:49;98450.59;;;13.28;82.08
5905;BME280;2978;42.012;24.880;2022-11-06T05:01:15;98446.50;;;13.26;82.69
5905;BME280;2978;42.012;24.880;2022-11-06T05:03:40;98453.06;;;13.30;83.37
5905;BME280;2978;42.012;24.880;2022-11-06T05:06:07;98469.63;;;13.30;83.84
5905;BME280;2978;42.012;24.880;2022-11-06T05:08:32;98466.13;;;13.24;83.64
5905;BME280;2978;42.012;24.880;2022-11-06T05:10:57;98471.94;;;13.23;84.27
5905;BME280;2978;42.012;24.880;2022-11-06T05:13:23;98471.41;;;13.21;83.94
5905;BME280;2978;42.012;24.880;2022-11-06T05:15:54;98457.38;;;13.17;84.18
5905;BME280;2978;42.012;24.880;2022-11-06T05:18:20;98476.09;;;13.20;84.13
5905;BME280;2978;42.012;24.880;2022-11-06T05:20:46;98484.69;;;13.19;84.11
5905;BME280;2978;42.012;24.880;2022-11-06T05:23:11;98470.75;;;13.10;84.44
5905;BME280;2978;42.012;24.880;2022-11-06T05:25:37;98479.84;;;13.11;84.56
5905;BME280;2978;42.012;24.880;2022-11-06T05:28:05;98484.63;;;13.05;85.16
5905;BME280;2978;42.012;24.880;2022-11-06T05:30:32;98483.47;;;13.06;85.46
5905;BME280;2978;42.012;24.880;2022-11-06T05:32:58;98492.91;;;13.05;85.29
5905;BME280;2978;42.012;24.880;2022-11-06T05:35:24;98484.13;;;12.98;85.76
5905;BME280;2978;42.012;24.880;2022-11-06T05:37:49;98493.50;;;12.97;85.95
5905;BME280;2978;42.012;24.880;2022-11-06T05:40:15;98496.81;;;12.99;86.23
5905;BME280;2978;42.012;24.880;2022-11-06T05:42:42;98495.34;;;13.07;86.21
5905;BME280;2978;42.012;24.880;2022-11-06T05:45:09;98494.44;;;13.11;86.03
5905;BME280;2978;42.012;24.880;2022-11-06T05:47:35;98501.47;;;13.22;85.45
5905;BME280;2978;42.012;24.880;2022-11-06T05:50:00;98510.28;;;13.24;85.04
5905;BME280;2978;42.012;24.880;2022-11-06T05:52:26;98511.91;;;13.25;85.08
5905;BME280;2978;42.012;24.880;2022-11-06T05:54:51;98518.63;;;13.38;84.65
5905;BME280;2978;42.012;24.880;2022-11-06T05:57:17;98521.91;;;13.40;84.78
5905;BME280;2978;42.012;24.880;2022-11-06T05:59:42;98529.75;;;13.51;84.15
5905;BME280;2978;42.012;24.880;2022-11-06T06:02:08;98518.63;;;13.56;84.01
5905;BME280;2978;42.012;24.880;2022-11-06T06:04:34;98521.28;;;13.62;83.56
5905;BME280;2978;42.012;24.880;2022-11-06T06:07:00;98536.22;;;13.61;83.52
5905;BME280;2978;42.012;24.880;2022-11-06T06:09:25;98538.38;;;13.64;83.72
5905;BME280;2978;42.012;24.880;2022-11-06T06:11:51;98536.69;;;13.68;83.29
5905;BME280;2978;42.012;24.880;2022-11-06T06:14:18;98548.78;;;13.72;83.18
5905;BME280;2978;42.012;24.880;2022-11-06T06:16:44;98552.88;;;13.74;83.26
5905;BME280;2978;42.012;24.880;2022-11-06T06:19:09;98543.69;;;13.79;82.93
5905;BME280;2978;42.012;24.880;2022-11-06T06:21:35;98533.22;;;13.76;82.90
5905;BME280;2978;42.012;24.880;2022-11-06T06:24:02;98550.19;;;13.88;82.46
5905;BME280;2978;42.012;24.880;2022-11-06T06:26:28;98558.88;;;13.95;82.30
5905;BME280;2978;42.012;24.880;2022-11-06T06:28:53;98570.09;;;14.03;82.28
5905;BME280;2978;42.012;24.880;2022-11-06T06:31:19;98559.25;;;14.07;81.99
5905;BME280;2978;42.012;24.880;2022-11-06T06:33:44;98562.66;;;14.17;81.59
5905;BME280;2978;42.012;24.880;2022-11-06T06:36:10;98560.59;;;14.23;81.33
5905;BME280;2978;42.012;24.880;2022-11-06T06:38:35;98563.72;;;14.35;80.89
5905;BME280;2978;42.012;24.880;2022-11-06T06:41:02;98569.09;;;14.45;80.31
5905;BME280;2978;42.012;24.880;2022-11-06T06:43:28;98575.16;;;14.60;79.73
5905;BME280;2978;42.012;24.880;2022-11-06T06:45:56;98586.25;;;14.74;79.08
5905;BME280;2978;42.012;24.880;2022-11-06T06:48:22;98580.59;;;14.79;78.77
5905;BME280;2978;42.012;24.880;2022-11-06T06:50:48;98585.31;;;14.79;78.55
5905;BME280;2978;42.012;24.880;2022-11-06T06:53:13;98585.56;;;14.96;78.05
5905;BME280;2978;42.012;24.880;2022-11-06T06:55:38;98596.00;;;14.99;77.66
5905;BME280;2978;42.012;24.880;2022-11-06T06:58:06;98590.66;;;15.02;77.94
5905;BME280;2978;42.012;24.880;2022-11-06T07:00:31;98593.34;;;15.07;79.80
5905;BME280;2978;42.012;24.880;2022-11-06T07:02:56;98597.63;;;15.13;80.52
5905;BME280;2978;42.012;24.880;2022-11-06T07:05:22;98594.16;;;15.21;81.20
5905;BME280;2978;42.012;24.880;2022-11-06T07:07:48;98598.84;;;15.34;78.75
5905;BME280;2978;42.012;24.880;2022-11-06T07:10:13;98590.94;;;15.41;77.23
5905;BME280;2978;42.012;24.880;2022-11-06T07:12:39;98595.25;;;15.47;76.67
5905;BME280;2978;42.012;24.880;2022-11-06T07:15:05;98591.75;;;15.55;77.12
5905;BME280;2978;42.012;24.880;2022-11-06T07:17:30;98592.97;;;15.63;76.86
5905;BME280;2978;42.012;24.880;2022-11-06T07:19:56;98593.44;;;15.78;76.30
5905;BME280;2978;42.012;24.880;2022-11-06T07:22:25;98586.16;;;15.83;78.97
5905;BME280;2978;42.012;24.880;2022-11-06T07:24:51;98592.81;;;15.82;79.78
5905;BME280;2978;42.012;24.880;2022-11-06T07:27:16;98589.22;;;15.81;80.36
5905;BME280;2978;42.012;24.880;2022-11-06T07:29:42;98596.59;;;15.86;80.53
5905;BME280;2978;42.012;24.880;2022-11-06T07:32:08;98597.00;;;15.93;80.48
5905;BME280;2978;42.012;24.880;2022-11-06T07:34:33;98597.00;;;15.93;80.16
5905;BME280;2978;42.012;24.880;2022-11-06T07:36:59;98592.97;;;15.99;80.69
5905;BME280;2978;42.012;24.880;2022-11-06T07:39:24;98599.50;;;16.03;80.41
5905;BME280;2978;42.012;24.880;2022-11-06T07:41:50;98594.66;;;16.08;80.31
5905;BME280;2978;42.012;24.880;2022-11-06T07:44:15;98598.13;;;16.14;80.26
5905;BME280;2978;42.012;24.880;2022-11-06T07:46:40;98594.78;;;16.25;79.79
5905;BME280;2978;42.012;24.880;2022-11-06T07:49:06;98608.84;;;16.29;79.62
5905;BME280;2978;42.012;24.880;2022-11-06T07:51:31;98605.50;;;16.40;78.95
5905;BME280;2978;42.012;24.880;2022-11-06T07:53:57;98604.53;;;16.45;78.10
5905;BME280;2978;42.012;24.880;2022-11-06T07:56:22;98600.75;;;16.54;77.96
5905;BME280;2978;42.012;24.880;2022-11-06T07:58:48;98607.44;;;16.62;76.97
5905;BME280;2978;42.012;24.880;2022-11-06T08:01:15;98607.91;;;16.55;75.98
5905;BME280;2978;42.012;24.880;2022-11-06T08:03:42;98605.97;;;16.56;75.83
5905;BME280;2978;42.012;24.880;2022-11-06T08:06:07;98616.94;;;16.61;75.86
5905;BME280;2978;42.012;24.880;2022-11-06T08:08:33;98623.47;;;16.65;76.22
5905;BME280;2978;42.012;24.880;2022-11-06T08:11:03;98624.34;;;16.74;75.70
5905;BME280;2978;42.012;24.880;2022-11-06T08:13:29;98631.03;;;16.73;75.26
5905;BME280;2978;42.012;24.880;2022-11-06T08:15:55;98632.94;;;16.64;75.38
5905;BME280;2978;42.012;24.880;2022-11-06T08:18:20;98638.75;;;16.54;75.42
5905;BME280;2978;42.012;24.880;2022-11-06T08:20:46;98624.63;;;16.42;76.08
5905;BME280;2978;42.012;24.880;2022-11-06T08:23:12;98640.53;;;16.50;76.04
5905;BME280;2978;42.012;24.880;2022-11-06T08:25:38;98641.91;;;16.61;75.94
5905;BME280;2978;42.012;24.880;2022-11-06T08:28:04;98651.41;;;16.68;75.84
5905;BME280;2978;42.012;24.880;2022-11-06T08:30:30;98663.22;;;16.74;75.81
5905;BME280;2978;42.012;24.880;2022-11-06T08:33:00;98690.59;;;16.67;74.95
5905;BME280;2978;42.012;24.880;2022-11-06T08:35:26;98681.41;;;16.58;75.70
5905;BME280;2978;42.012;24.880;2022-11-06T08:37:52;98670.44;;;16.39;76.59
5905;BME280;2978;42.012;24.880;2022-11-06T08:40:17;98671.22;;;16.31;76.37
5905;BME280;2978;42.012;24.880;2022-11-06T08:42:44;98686.06;;;16.35;76.17
5905;BME280;2978;42.012;24.880;2022-11-06T08:45:10;98684.63;;;16.38;75.80
5905;BME280;2978;42.012;24.880;2022-11-06T08:47:35;98700.41;;;16.29;76.95
5905;BME280;2978;42.012;24.880;2022-11-06T08:50:01;98702.78;;;16.22;78.76
5905;BME280;2978;42.012;24.880;2022-11-06T08:52:26;98679.69;;;16.13;79.84
5905;BME280;2978;42.012;24.880;2022-11-06T08:54:51;98671.13;;;15.87;81.87
5905;BME280;2978;42.012;24.880;2022-11-06T08:57:17;98682.09;;;15.92;83.88
5905;BME280;2978;42.012;24.880;2022-11-06T08:59:42;98695.06;;;15.83;86.19
5905;BME280;2978;42.012;24.880;2022-11-06T09:02:12;98692.00;;;15.85;86.23
5905;BME280;2978;42.012;24.880;2022-11-06T09:04:38;98687.88;;;15.82;87.25
5905;BME280;2978;42.012;24.880;2022-11-06T09:07:03;98688.53;;;15.79;87.51
5905;BME280;2978;42.012;24.880;2022-11-06T09:09:29;98682.19;;;15.65;89.10
5905;BME280;2978;42.012;24.880;2022-11-06T09:11:59;98677.84;;;15.59;89.54
5905;BME280;2978;42.012;24.880;2022-11-06T09:14:26;98684.53;;;15.58;89.32
5905;BME280;2978;42.012;24.880;2022-11-06T09:16:52;98667.91;;;15.58;88.89
5905;BME280;2978;42.012;24.880;2022-11-06T09:19:18;98653.75;;;15.59;90.43
5905;BME280;2978;42.012;24.880;2022-11-06T09:21:43;98648.94;;;15.51;89.36
5905;BME280;2978;42.012;24.880;2022-11-06T09:24:09;98664.94;;;15.54;91.14
5905;BME280;2978;42.012;24.880;2022-11-06T09:26:34;98666.16;;;15.62;90.56
5905;BME280;2978;42.012;24.880;2022-11-06T09:29:00;98667.38;;;15.69;89.90
5905;BME280;2978;42.012;24.880;2022-11-06T09:31:25;98665.81;;;15.77;88.19
5905;BME280;2978;42.012;24.880;2022-11-06T09:33:51;98660.25;;;15.91;87.23
5905;BME280;2978;42.012;24.880;2022-11-06T09:36:16;98659.47;;;16.12;87.62
5905;BME280;2978;42.012;24.880;2022-11-06T09:38:42;98662.06;;;16.31;86.70
5905;BME280;2978;42.012;24.880;2022-11-06T09:41:17;98670.41;;;16.53;85.14
5905;BME280;2978;42.012;24.880;2022-11-06T09:46:44;98660.97;;;16.84;84.14
5905;BME280;2978;42.012;24.880;2022-11-06T09:49:25;98664.44;;;16.90;83.32
5905;BME280;2978;42.012;24.880;2022-11-06T09:57:14;98668.59;;;17.01;82.12
5905;BME280;2978;42.012;24.880;2022-11-06T09:59:40;98665.53;;;17.11;82.53
5905;BME280;2978;42.012;24.880;2022-11-06T10:05:14;98660.75;;;17.42;81.63
5905;BME280;2978;42.012;24.880;2022-11-06T10:07:43;98658.97;;;17.38;80.81
5905;BME280;2978;42.012;24.880;2022-11-06T10:10:17;98662.09;;;17.45;80.09
5905;BME280;2978;42.012;24.880;2022-11-06T10:15:39;98661.34;;;17.70;78.63
5905;BME280;2978;42.012;24.880;2022-11-06T10:20:51;98653.88;;;17.96;78.51
5905;BME280;2978;42.012;24.880;2022-11-06T10:23:22;98659.13;;;18.06;77.80
5905;BME280;2978;42.012;24.880;2022-11-06T10:34:16;98652.13;;;18.43;76.73
5905;BME280;2978;42.012;24.880;2022-11-06T10:36:46;98660.28;;;18.39;75.91
5905;BME280;2978;42.012;24.880;2022-11-06T10:39:19;98652.09;;;18.26;75.18
5905;BME280;2978;42.012;24.880;2022-11-06T10:41:51;98646.84;;;18.16;75.42
5905;BME280;2978;42.012;24.880;2022-11-06T10:44:22;98647.19;;;18.14;75.87
5905;BME280;2978;42.012;24.880;2022-11-06T10:46:54;98644.72;;;18.13;75.98
5905;BME280;2978;42.012;24.880;2022-11-06T10:49:33;98651.94;;;18.14;76.36
5905;BME280;2978;42.012;24.880;2022-11-06T10:58:00;98642.44;;;18.23;75.87
5905;BME280;2978;42.012;24.880;2022-11-06T11:00:27;98647.00;;;18.28;76.45
5905;BME280;2978;42.012;24.880;2022-11-06T11:02:57;98642.44;;;18.32;75.72
5905;BME280;2978;42.012;24.880;2022-11-06T11:05:26;98634.88;;;18.24;75.56
5905;BME280;2978;42.012;24.880;2022-11-06T11:07:56;98637.22;;;18.22;76.19
5905;BME280;2978;42.012;24.880;2022-11-06T11:12:48;98632.13;;;18.49;77.70
5905;BME280;2978;42.012;24.880;2022-11-06T11:15:19;98619.16;;;18.36;76.53
5905;BME280;2978;42.012;24.880;2022-11-06T11:20:50;98630.63;;;18.35;76.10
5905;BME280;2978;42.012;24.880;2022-11-06T11:23:23;98622.28;;;18.35;76.83
5905;BME280;2978;42.012;24.880;2022-11-06T11:25:54;98606.75;;;18.25;76.43
5905;BME280;2978;42.012;24.880;2022-11-06T11:28:33;98623.78;;;18.32;75.69
5905;BME280;2978;42.012;24.880;2022-11-06T11:31:11;98620.66;;;18.34;76.24
5905;BME280;2978;42.012;24.880;2022-11-06T11:33:38;98612.31;;;18.34;76.73
5905;BME280;2978;42.012;24.880;2022-11-06T11:36:06;98619.69;;;18.47;76.92
5905;BME280;2978;42.012;24.880;2022-11-06T11:38:35;98619.66;;;18.64;76.13
5905;BME280;2978;42.012;24.880;2022-11-06T11:41:11;98612.59;;;18.66;74.59
5905;BME280;2978;42.012;24.880;2022-11-06T11:43:38;98610.28;;;18.77;75.32
5905;BME280;2978;42.012;24.880;2022-11-06T11:48:47;98616.44;;;18.99;74.95
5905;BME280;2978;42.012;24.880;2022-11-06T11:56:26;98630.94;;;18.67;75.69
5905;BME280;2978;42.012;24.880;2022-11-06T11:58:55;98630.78;;;18.64;75.84
5905;BME280;2978;42.012;24.880;2022-11-06T12:01:35;98636.03;;;18.57;76.11
5905;BME280;2978;42.012;24.880;2022-11-06T12:04:09;98633.59;;;18.47;76.51
5905;BME280;2978;42.012;24.880;2022-11-06T12:06:59;98626.41;;;18.37;76.98
5905;BME280;2978;42.012;24.880;2022-11-06T12:09:27;98626.06;;;18.30;77.80
5905;BME280;2978;42.012;24.880;2022-11-06T12:11:55;98633.75;;;18.25;78.12
5905;BME280;2978;42.012;24.880;2022-11-06T12:16:51;98631.47;;;18.10;78.24
5905;BME280;2978;42.012;24.880;2022-11-06T12:19:19;98633.09;;;18.11;78.85
5905;BME280;2978;42.012;24.880;2022-11-06T12:21:52;98633.28;;;18.06;78.53
5905;BME280;2978;42.012;24.880;2022-11-06T12:24:26;98624.44;;;18.12;78.50
5905;BME280;2978;42.012;24.880;2022-11-06T12:26:58;98629.34;;;18.15;78.15
5905;BME280;2978;42.012;24.880;2022-11-06T12:29:52;98626.88;;;18.14;78.20
5905;BME280;2978;42.012;24.880;2022-11-06T12:35:38;98628.69;;;18.10;78.46
5905;BME280;2978;42.012;24.880;2022-11-06T12:41:00;98617.72;;;18.05;79.74
5905;BME280;2978;42.012;24.880;2022-11-06T12:43:41;98629.00;;;18.17;80.08
5905;BME280;2978;42.012;24.880;2022-11-06T12:51:59;98616.41;;;18.28;79.32
5905;BME280;2978;42.012;24.880;2022-11-06T12:57:36;98611.16;;;18.35;79.62
5905;BME280;2978;42.012;24.880;2022-11-06T13:00:20;98619.34;;;18.40;79.38
5905;BME280;2978;42.012;24.880;2022-11-06T13:11:00;98609.47;;;18.76;78.52
5905;BME280;2978;42.012;24.880;2022-11-06T13:25:13;98605.28;;;18.99;76.60
5905;BME280;2978;42.012;24.880;2022-11-06T13:27:51;98609.41;;;19.02;76.53
5905;BME280;2978;42.012;24.880;2022-11-06T13:30:20;98612.28;;;19.14;75.99
5905;BME280;2978;42.012;24.880;2022-11-06T13:33:05;98607.03;;;19.21;76.18
5905;BME280;2978;42.012;24.880;2022-11-06T13:35:33;98609.50;;;19.14;75.95
5905;BME280;2978;42.012;24.880;2022-11-06T13:38:02;98610.53;;;19.01;76.22
5905;BME280;2978;42.012;24.880;2022-11-06T13:40:41;98595.63;;;18.97;76.83
5905;BME280;2978;42.012;24.880;2022-11-06T13:43:19;98592.38;;;18.95;76.33
5905;BME280;2978;42.012;24.880;2022-11-06T13:48:42;98596.00;;;18.87;77.29
5905;BME280;2978;42.012;24.880;2022-11-06T13:53:59;98592.53;;;18.90;76.15
5905;BME280;2978;42.012;24.880;2022-11-06T14:07:32;98594.06;;;18.79;78.16
5905;BME280;2978;42.012;24.880;2022-11-06T14:09:58;98608.16;;;18.82;78.46
5905;BME280;2978;42.012;24.880;2022-11-06T14:12:24;98592.78;;;18.68;78.94
5905;BME280;2978;42.012;24.880;2022-11-06T14:14:53;98597.72;;;18.54;79.43
5905;BME280;2978;42.012;24.880;2022-11-06T14:17:37;98591.69;;;18.43;80.37
5905;BME280;2978;42.012;24.880;2022-11-06T14:22:52;98594.28;;;18.40;81.53
5905;BME280;2978;42.012;24.880;2022-11-06T14:32:56;98600.22;;;17.95;82.41
5905;BME280;2978;42.012;24.880;2022-11-06T14:38:16;98589.88;;;17.70;83.06
5905;BME280;2978;42.012;24.880;2022-11-06T14:40:43;98590.53;;;17.67;83.26
5905;BME280;2978;42.012;24.880;2022-11-06T14:43:20;98595.44;;;17.62;83.77
5905;BME280;2978;42.012;24.880;2022-11-06T14:45:54;98598.69;;;17.47;84.77
5905;BME280;2978;42.012;24.880;2022-11-06T14:48:39;98593.41;;;17.45;84.66
5905;BME280;2978;42.012;24.880;2022-11-06T14:51:07;98600.25;;;17.39;85.15
5905;BME280;2978;42.012;24.880;2022-11-06T14:53:50;98605.00;;;17.39;85.46
5905;BME280;2978;42.012;24.880;2022-11-06T14:56:32;98612.03;;;17.36;85.73
5905;BME280;2978;42.012;24.880;2022-11-06T14:59:05;98624.56;;;17.25;85.61
5905;BME280;2978;42.012;24.880;2022-11-06T15:01:34;98626.00;;;17.14;85.75
5905;BME280;2978;42.012;24.880;2022-11-06T15:09:05;98624.78;;;16.98;86.40
5905;BME280;2978;42.012;24.880;2022-11-06T15:16:43;98632.22;;;16.80;87.37
5905;BME280;2978;42.012;24.880;2022-11-06T15:19:24;98633.81;;;16.73;87.99
5905;BME280;2978;42.012;24.880;2022-11-06T15:22:13;98636.59;;;16.73;88.11
5905;BME280;2978;42.012;24.880;2022-11-06T15:24:44;98633.97;;;16.68;88.48
5905;BME280;2978;42.012;24.880;2022-11-06T15:27:17;98634.56;;;16.65;88.32
5905;BME280;2978;42.012;24.880;2022-11-06T15:29:45;98634.56;;;16.65;88.45
5905;BME280;2978;42.012;24.880;2022-11-06T15:32:17;98641.91;;;16.61;88.53
5905;BME280;2978;42.012;24.880;2022-11-06T15:37:29;98645.81;;;16.60;88.81
5905;BME280;2978;42.012;24.880;2022-11-06T15:39:56;98650.50;;;16.51;89.27
5905;BME280;2978;42.012;24.880;2022-11-06T15:42:24;98655.09;;;16.55;89.06
5905;BME280;2978;42.012;24.880;2022-11-06T15:47:40;98660.28;;;16.48;89.47
5905;BME280;2978;42.012;24.880;2022-11-06T15:50:18;98661.41;;;16.47;89.72
5905;BME280;2978;42.012;24.880;2022-11-06T15:52:45;98663.97;;;16.44;89.67
5905;BME280;2978;42.012;24.880;2022-11-06T15:55:12;98656.06;;;16.37;90.13
5905;BME280;2978;42.012;24.880;2022-11-06T15:57:39;98656.25;;;16.41;90.08
5905;BME280;2978;42.012;24.880;2022-11-06T16:00:08;98658.53;;;16.39;89.94
5905;BME280;2978;42.012;24.880;2022-11-06T16:02:49;98657.72;;;16.38;90.22